Time;durP1;ratioP1;P1;durP2;ratioP2;P2;SDS_P1;SDS_P2;PMS_P1;PMS_P2;Temp;Humidity;BMP_temperature;BMP_pressure;BME280_temperature;BME280_humidity;BME280_pressure;Samples;Min_cycle;Max_cycle;Signal;HPM_P1;HPM_P2
2022/10/30 00:00:25;;;;;;;14.75;8.77;;;13.00;99.90;;;;;;5048145;28;20471;-78
2022/10/30 00:02:51;;;;;;;18.77;9.48;;;13.00;99.90;;;;;;5034418;28;20450;-78
2022/10/30 00:05:19;;;;;;;16.33;8.32;;;13.00;99.90;;;;;;5046026;28;20025;-78
2022/10/30 00:07:46;;;;;;;15.35;9.48;;;12.90;99.90;;;;;;5049615;28;20052;-77
2022/10/30 00:10:12;;;;;;;17.63;10.90;;;12.90;99.90;;;;;;5050045;28;20029;-77
2022/10/30 00:12:39;;;;;;;17.48;10.52;;;12.90;99.90;;;;;;5052982;28;20021;-78
2022/10/30 00:15:05;;;;;;;16.42;9.93;;;13.00;99.90;;;;;;5036223;28;20049;-83
2022/10/30 00:17:32;;;;;;;20.63;9.10;;;12.90;99.90;;;;;;5035222;28;20026;-78
2022/10/30 00:19:58;;;;;;;19.65;9.52;;;12.90;99.90;;;;;;5037279;28;20032;-78
2022/10/30 00:22:24;;;;;;;18.92;10.88;;;13.00;99.90;;;;;;5041625;28;20036;-78
2022/10/30 00:24:50;;;;;;;18.13;10.40;;;13.20;99.90;;;;;;5038159;28;20029;-79
2022/10/30 00:27:17;;;;;;;21.77;10.40;;;13.20;99.90;;;;;;5032479;28;20032;-80
2022/10/30 00:29:43;;;;;;;19.42;10.05;;;13.20;99.90;;;;;;5033999;28;20032;-79
2022/10/30 00:32:09;;;;;;;15.02;9.80;;;13.20;99.90;;;;;;5050645;28;20041;-79
2022/10/30 00:34:36;;;;;;;14.80;9.80;;;13.20;99.90;;;;;;5051368;28;20029;-79
2022/10/30 00:37:02;;;;;;;16.00;10.18;;;13.10;99.90;;;;;;5053006;28;20033;-79
2022/10/30 00:39:28;;;;;;;13.23;9.27;;;13.10;99.90;;;;;;5035943;28;20037;-79
2022/10/30 00:41:54;;;;;;;20.58;11.20;;;13.10;99.90;;;;;;5039216;28;20377;-79
2022/10/30 00:44:48;;;;;;;13.48;8.93;;;13.10;99.90;;;;;;5046665;28;20040;-78
2022/10/30 00:47:29;;;;;;;15.30;9.82;;;13.10;99.90;;;;;;5038864;28;20022;-80
2022/10/30 00:50:05;;;;;;;21.92;10.25;;;13.10;99.90;;;;;;5033314;28;20489;-77
2022/10/30 00:52:35;;;;;;;26.23;11.30;;;13.20;99.90;;;;;;5037535;28;20041;-77
2022/10/30 00:55:08;;;;;;;16.33;10.25;;;13.30;99.90;;;;;;5052947;28;20035;-79
2022/10/30 00:57:37;;;;;;;20.15;10.77;;;13.30;99.90;;;;;;5045692;28;20371;-80
2022/10/30 01:00:05;;;;;;;19.38;10.93;;;13.20;99.90;;;;;;5039065;28;20033;-78
2022/10/30 01:02:31;;;;;;;18.88;10.45;;;13.30;99.90;;;;;;5035041;28;20042;-77
2022/10/30 01:04:58;;;;;;;19.45;10.60;;;13.30;99.90;;;;;;5046561;28;20032;-77
2022/10/30 01:07:25;;;;;;;17.80;9.90;;;13.30;99.90;;;;;;5052196;28;20037;-77
2022/10/30 01:09:51;;;;;;;19.73;11.45;;;13.30;99.90;;;;;;5035582;28;20084;-76
2022/10/30 01:12:17;;;;;;;20.30;9.70;;;13.20;99.90;;;;;;5046148;28;20041;-78
2022/10/30 01:14:53;;;;;;;22.33;11.57;;;13.20;99.90;;;;;;5038883;28;20478;-77
2022/10/30 01:17:43;;;;;;;19.85;10.52;;;13.20;99.90;;;;;;5033719;28;20041;-78
2022/10/30 01:20:31;;;;;;;20.70;10.23;;;13.10;99.90;;;;;;5034403;28;20052;-78
2022/10/30 01:23:25;;;;;;;17.00;10.13;;;13.10;99.90;;;;;;5034768;28;20060;-78
2022/10/30 01:25:58;;;;;;;16.88;10.13;;;13.10;99.90;;;;;;5047420;28;20041;-77
2022/10/30 01:28:49;;;;;;;21.70;8.73;;;13.00;99.90;;;;;;5052002;28;20040;-76
2022/10/30 01:31:47;;;;;;;15.77;9.23;;;13.00;99.90;;;;;;5043122;28;20037;-78
2022/10/30 01:34:29;;;;;;;22.00;10.48;;;13.00;99.90;;;;;;5044290;28;20458;-77
2022/10/30 01:37:24;;;;;;;20.73;10.43;;;13.00;99.90;;;;;;5046518;28;20034;-80
2022/10/30 01:39:50;;;;;;;20.35;11.15;;;13.10;99.90;;;;;;5055092;28;20049;-78
2022/10/30 01:42:46;;;;;;;18.80;11.32;;;13.20;99.90;;;;;;5047263;28;20037;-78
2022/10/30 01:45:39;;;;;;;25.35;10.25;;;13.20;99.90;;;;;;5053375;28;20037;-79
2022/10/30 01:48:29;;;;;;;17.75;9.93;;;13.20;99.90;;;;;;5047344;28;20041;-79
2022/10/30 01:51:21;;;;;;;22.38;10.82;;;13.20;99.90;;;;;;5068383;28;20044;-78
2022/10/30 01:54:14;;;;;;;16.77;9.70;;;13.20;99.90;;;;;;5036187;28;20364;-78
2022/10/30 01:57:08;;;;;;;20.90;10.05;;;13.10;99.90;;;;;;5044280;28;20044;-78
2022/10/30 01:59:48;;;;;;;13.40;8.50;;;13.00;99.90;;;;;;5036787;28;20072;-78
2022/10/30 02:02:18;;;;;;;17.02;9.27;;;13.00;99.90;;;;;;5056214;28;20044;-78
2022/10/30 02:04:45;;;;;;;20.90;9.55;;;12.90;99.90;;;;;;5054732;28;20044;-78
2022/10/30 02:07:14;;;;;;;14.23;8.38;;;12.80;99.90;;;;;;5021664;28;20148;-79
2022/10/30 02:09:46;;;;;;;15.77;9.00;;;12.80;99.90;;;;;;5055808;28;20454;-78
2022/10/30 02:12:14;;;;;;;15.35;8.88;;;12.70;99.90;;;;;;5054039;28;20462;-78
2022/10/30 02:14:43;;;;;;;13.10;7.75;;;12.60;99.90;;;;;;5054558;28;20025;-78
2022/10/30 02:17:11;;;;;;;17.08;8.45;;;12.50;99.90;;;;;;5060632;28;20362;-83
2022/10/30 02:19:41;;;;;;;13.85;8.00;;;12.50;99.90;;;;;;5052230;28;20470;-79
2022/10/30 02:22:08;;;;;;;14.77;8.70;;;12.50;99.90;;;;;;5045059;28;20045;-79
2022/10/30 02:24:35;;;;;;;15.85;10.88;;;12.50;99.90;;;;;;5036575;28;20040;-79
2022/10/30 02:27:02;;;;;;;16.05;9.05;;;12.60;99.90;;;;;;5042946;28;20382;-79
2022/10/30 02:29:28;;;;;;;19.05;9.70;;;12.60;99.90;;;;;;5057302;28;20032;-80
2022/10/30 02:31:55;;;;;;;23.98;10.50;;;12.60;99.90;;;;;;5083850;28;20024;-79
2022/10/30 02:34:21;;;;;;;17.50;8.73;;;12.50;99.90;;;;;;5056769;28;20484;-80
2022/10/30 02:36:47;;;;;;;18.90;9.65;;;12.50;99.90;;;;;;5045759;28;20354;-77
2022/10/30 02:39:13;;;;;;;24.65;11.45;;;12.50;99.90;;;;;;5054453;28;20045;-77
2022/10/30 02:41:40;;;;;;;18.23;11.77;;;12.50;99.90;;;;;;5056343;28;20036;-76
2022/10/30 02:44:06;;;;;;;19.45;11.90;;;12.40;99.90;;;;;;5044723;28;20048;-79
2022/10/30 02:46:33;;;;;;;17.10;9.55;;;12.40;99.90;;;;;;5035752;28;20052;-79
2022/10/30 02:49:00;;;;;;;21.25;9.77;;;12.40;99.90;;;;;;5036350;28;20343;-79
2022/10/30 02:51:27;;;;;;;18.52;8.90;;;12.40;99.90;;;;;;5037121;28;20060;-76
2022/10/30 02:53:53;;;;;;;20.70;9.52;;;12.40;99.90;;;;;;5053648;28;20393;-78
2022/10/30 02:56:19;;;;;;;16.90;10.82;;;12.30;99.90;;;;;;5045121;28;20037;-79
2022/10/30 02:58:46;;;;;;;13.55;8.88;;;12.30;99.90;;;;;;5041211;28;20475;-79
2022/10/30 03:01:15;;;;;;;15.48;9.68;;;12.30;99.90;;;;;;5053586;28;20045;-80
2022/10/30 03:03:43;;;;;;;17.15;8.77;;;12.20;99.90;;;;;;5054404;28;20048;-77
2022/10/30 03:06:14;;;;;;;16.38;9.98;;;12.30;99.90;;;;;;5054260;28;20041;-77
2022/10/30 03:08:41;;;;;;;16.65;10.43;;;12.20;99.90;;;;;;5035662;28;20052;-77
2022/10/30 03:11:10;;;;;;;16.45;9.23;;;12.20;99.90;;;;;;5046461;28;20029;-77
2022/10/30 03:13:39;;;;;;;16.55;10.88;;;12.20;99.90;;;;;;5054989;28;20041;-78
2022/10/30 03:16:08;;;;;;;29.50;10.55;;;12.20;99.90;;;;;;5039746;28;20040;-77
2022/10/30 03:18:35;;;;;;;14.77;9.48;;;12.30;99.90;;;;;;5034201;28;20034;-77
2022/10/30 03:21:09;;;;;;;20.85;9.95;;;12.30;99.90;;;;;;5051452;28;20036;-77
2022/10/30 03:23:36;;;;;;;18.33;9.85;;;12.30;99.90;;;;;;5038398;28;20044;-77
2022/10/30 03:26:04;;;;;;;21.40;10.23;;;12.20;99.90;;;;;;5042507;28;20041;-76
2022/10/30 03:28:35;;;;;;;23.23;10.38;;;12.20;99.90;;;;;;5047542;28;20045;-77
2022/10/30 03:31:08;;;;;;;18.13;11.27;;;12.20;99.90;;;;;;5052713;28;20068;-78
2022/10/30 03:33:36;;;;;;;21.98;10.70;;;12.10;99.90;;;;;;5041554;28;20044;-77
2022/10/30 03:36:04;;;;;;;20.17;11.27;;;12.00;99.90;;;;;;5033465;28;20038;-78
2022/10/30 03:38:30;;;;;;;18.02;10.45;;;12.00;99.90;;;;;;5034488;28;20033;-77
2022/10/30 03:40:57;;;;;;;19.60;11.57;;;11.90;99.90;;;;;;5052726;28;20041;-77
2022/10/30 03:43:24;;;;;;;20.35;10.77;;;11.90;99.90;;;;;;5051905;28;20047;-78
2022/10/30 03:45:53;;;;;;;18.45;9.68;;;11.80;99.90;;;;;;5052350;28;20056;-78
2022/10/30 03:48:25;;;;;;;13.93;9.98;;;11.80;99.90;;;;;;5050458;28;20051;-77
2022/10/30 03:50:56;;;;;;;16.08;9.50;;;11.80;99.90;;;;;;5036406;28;20037;-78
2022/10/30 03:53:25;;;;;;;17.95;9.95;;;11.80;99.90;;;;;;5053116;28;20029;-78
2022/10/30 03:55:52;;;;;;;23.48;9.48;;;11.80;99.90;;;;;;5052090;28;20040;-77
2022/10/30 03:58:18;;;;;;;14.63;9.32;;;11.70;99.90;;;;;;5040298;28;20356;-78
2022/10/30 04:00:45;;;;;;;26.02;10.65;;;11.70;99.90;;;;;;5048454;28;20053;-78
2022/10/30 04:03:12;;;;;;;17.17;9.38;;;11.60;99.90;;;;;;5033270;28;20040;-78
2022/10/30 04:05:41;;;;;;;19.90;10.43;;;11.60;99.90;;;;;;5048464;28;20360;-77
2022/10/30 04:08:11;;;;;;;18.10;10.40;;;11.60;99.90;;;;;;5040948;28;20044;-77
2022/10/30 04:10:45;;;;;;;21.30;10.32;;;11.50;99.90;;;;;;5032899;28;20493;-78
2022/10/30 04:13:13;;;;;;;20.75;10.75;;;11.50;99.90;;;;;;5032470;28;20041;-77
2022/10/30 04:15:48;;;;;;;17.77;9.75;;;11.50;99.90;;;;;;5033080;28;20040;-77
2022/10/30 04:18:15;;;;;;;23.75;10.70;;;11.50;99.90;;;;;;5030235;28;20041;-78
2022/10/30 04:20:42;;;;;;;18.58;9.43;;;11.50;99.90;;;;;;5039282;28;20037;-78
2022/10/30 04:23:12;;;;;;;22.23;9.65;;;11.40;99.90;;;;;;5047921;28;20045;-77
2022/10/30 04:25:39;;;;;;;17.55;9.13;;;11.30;99.90;;;;;;5033561;28;20498;-78
2022/10/30 04:28:05;;;;;;;19.63;9.63;;;11.30;99.90;;;;;;5031481;28;20044;-78
2022/10/30 04:30:34;;;;;;;15.88;9.35;;;11.20;99.90;;;;;;5033036;28;20030;-77
2022/10/30 04:33:03;;;;;;;19.23;9.30;;;11.20;99.90;;;;;;5074984;28;20489;-78
2022/10/30 04:35:32;;;;;;;21.55;9.43;;;11.20;99.90;;;;;;5051233;28;20029;-78
2022/10/30 04:38:01;;;;;;;12.73;8.65;;;11.20;99.90;;;;;;5050204;28;20045;-78
2022/10/30 04:40:30;;;;;;;19.60;10.35;;;11.10;99.90;;;;;;5050436;28;20048;-78
2022/10/30 04:43:01;;;;;;;15.23;8.63;;;11.10;99.90;;;;;;5050763;28;20048;-78
2022/10/30 04:45:28;;;;;;;23.45;9.73;;;11.00;99.90;;;;;;5050456;28;20037;-78
2022/10/30 04:48:13;;;;;;;18.85;8.77;;;11.00;99.90;;;;;;5033354;28;20488;-78
2022/10/30 04:50:42;;;;;;;15.77;9.65;;;11.00;99.90;;;;;;5051162;28;20426;-78
2022/10/30 04:53:16;;;;;;;20.73;10.15;;;10.90;99.90;;;;;;5039936;28;20060;-78
2022/10/30 04:55:45;;;;;;;17.63;9.52;;;11.00;99.90;;;;;;5054098;28;20040;-76
2022/10/30 04:58:12;;;;;;;18.60;10.93;;;11.00;99.90;;;;;;5051380;28;20048;-77
2022/10/30 05:00:40;;;;;;;16.38;8.68;;;11.00;99.90;;;;;;5052302;28;20044;-77
2022/10/30 05:03:17;;;;;;;;;;;10.90;99.90;;;;;;5052463;28;20041;-77
2022/10/30 05:05:43;;;;;;;14.35;8.60;;;10.90;99.90;;;;;;5038674;28;19912;-78
2022/10/30 05:08:09;;;;;;;15.73;9.52;;;10.90;99.90;;;;;;5034818;28;20450;-77
2022/10/30 05:10:39;;;;;;;16.92;9.85;;;10.80;99.90;;;;;;5047381;28;20053;-78
2022/10/30 05:13:05;;;;;;;18.58;10.50;;;10.80;99.90;;;;;;5052117;28;20143;-77
2022/10/30 05:15:31;;;;;;;20.30;9.63;;;10.80;99.90;;;;;;5046128;28;20501;-78
2022/10/30 05:17:58;;;;;;;18.83;9.48;;;10.80;99.90;;;;;;5045513;28;20382;-76
2022/10/30 05:20:24;;;;;;;15.52;8.50;;;10.80;99.90;;;;;;5032543;28;20037;-77
2022/10/30 05:22:54;;;;;;;15.27;8.70;;;10.70;99.90;;;;;;5033267;28;20434;-77
2022/10/30 05:25:21;;;;;;;17.10;11.77;;;10.60;99.90;;;;;;5031258;28;20037;-78
2022/10/30 05:27:47;;;;;;;22.73;9.30;;;10.60;99.90;;;;;;5030414;28;20034;-77
2022/10/30 05:30:13;;;;;;;18.00;9.10;;;10.60;99.90;;;;;;5032523;28;20471;-78
2022/10/30 05:32:40;;;;;;;19.33;9.38;;;10.60;99.90;;;;;;5032199;28;20044;-78
2022/10/30 05:35:07;;;;;;;25.25;10.18;;;10.60;99.90;;;;;;5040542;28;20021;-78
2022/10/30 05:37:33;;;;;;;14.73;8.88;;;10.50;99.90;;;;;;5027222;28;20116;-78
2022/10/30 05:40:00;;;;;;;17.98;9.90;;;10.50;99.90;;;;;;5052172;28;20033;-78
2022/10/30 05:42:28;;;;;;;15.70;8.10;;;10.40;99.90;;;;;;5032666;28;20375;-77
2022/10/30 05:44:56;;;;;;;15.35;10.45;;;10.40;99.90;;;;;;5050952;28;20143;-78
2022/10/30 05:47:22;;;;;;;23.58;10.07;;;10.40;99.90;;;;;;5048824;28;20049;-78
2022/10/30 05:49:52;;;;;;;16.65;9.38;;;10.40;99.90;;;;;;5050929;28;20053;-78
2022/10/30 05:52:21;;;;;;;16.10;8.85;;;10.30;99.90;;;;;;5047184;28;20045;-78
2022/10/30 05:54:49;;;;;;;18.35;9.82;;;10.30;99.90;;;;;;5047163;28;20386;-78
2022/10/30 05:57:32;;;;;;;14.48;8.60;;;10.30;99.90;;;;;;5044865;28;20040;-78
2022/10/30 05:59:59;;;;;;;19.58;9.60;;;10.30;99.90;;;;;;5031080;28;20056;-78
2022/10/30 06:02:25;;;;;;;18.00;10.75;;;10.30;99.90;;;;;;5041888;28;20045;-78
2022/10/30 06:04:52;;;;;;;17.58;10.57;;;10.30;99.90;;;;;;5044333;28;20045;-78
2022/10/30 06:07:19;;;;;;;19.13;10.35;;;10.20;99.90;;;;;;5042841;28;20125;-77
2022/10/30 06:09:45;;;;;;;19.30;10.82;;;10.20;99.90;;;;;;5031567;28;20466;-78
2022/10/30 06:12:30;;;;;;;15.38;9.57;;;10.20;99.90;;;;;;5036767;28;20496;-78
2022/10/30 06:15:03;;;;;;;17.48;9.90;;;10.20;99.90;;;;;;5049974;28;20402;-77
2022/10/30 06:17:30;;;;;;;28.05;12.85;;;10.20;99.90;;;;;;5047974;28;20040;-77
2022/10/30 06:20:12;;;;;;;15.85;10.02;;;10.10;99.90;;;;;;5050249;28;20045;-78
2022/10/30 06:23:03;;;;;;;23.42;10.48;;;10.00;99.90;;;;;;5047376;28;20361;-77
2022/10/30 06:25:42;;;;;;;19.35;11.23;;;10.00;99.90;;;;;;5030690;28;20064;-78
2022/10/30 06:28:13;;;;;;;19.58;11.30;;;10.00;99.90;;;;;;5030607;28;20044;-78
2022/10/30 06:30:41;;;;;;;23.75;11.68;;;10.00;99.90;;;;;;5033482;28;20042;-79
2022/10/30 06:33:09;;;;;;;19.40;11.55;;;10.10;99.90;;;;;;5039845;28;20351;-79
2022/10/30 06:35:38;;;;;;;21.58;12.82;;;10.00;99.90;;;;;;5053045;28;20036;-79
2022/10/30 06:38:04;;;;;;;21.90;11.95;;;10.10;99.90;;;;;;5053467;28;20029;-79
2022/10/30 06:40:32;;;;;;;21.88;12.43;;;10.10;99.90;;;;;;5031953;28;20042;-79
2022/10/30 06:43:19;;;;;;;25.00;11.73;;;10.10;99.90;;;;;;5034744;28;20045;-81
2022/10/30 06:45:51;;;;;;;16.35;11.02;;;10.20;99.90;;;;;;5034665;28;20038;-82
2022/10/30 06:48:17;;;;;;;21.58;12.82;;;10.20;99.90;;;;;;5032886;28;20038;-83
2022/10/30 06:50:54;;;;;;;19.17;12.65;;;10.30;99.90;;;;;;5041693;28;20045;-81
2022/10/30 06:53:20;;;;;;;23.08;12.30;;;10.40;99.90;;;;;;5039784;28;20033;-83
2022/10/30 06:56:01;;;;;;;18.55;11.50;;;10.50;99.90;;;;;;5034820;28;20041;-83
2022/10/30 06:59:00;;;;;;;23.50;12.23;;;10.60;99.90;;;;;;5034747;28;20374;-84
2022/10/30 07:01:33;;;;;;;20.02;12.65;;;10.60;99.90;;;;;;5034140;28;20037;-82
2022/10/30 07:04:16;;;;;;;20.75;11.80;;;10.70;99.90;;;;;;5034367;28;20048;-83
2022/10/30 07:06:43;;;;;;;20.08;11.85;;;10.80;99.90;;;;;;5042276;28;20051;-85
2022/10/30 07:09:10;;;;;;;21.45;13.23;;;10.90;99.90;;;;;;5046266;28;20041;-83
2022/10/30 07:11:39;;;;;;;22.63;13.15;;;11.00;99.90;;;;;;5037933;28;20033;-83
2022/10/30 07:14:20;;;;;;;22.55;12.57;;;11.30;99.90;;;;;;5054199;28;20033;-83
2022/10/30 07:17:06;;;;;;;23.67;13.88;;;11.70;99.90;;;;;;5033267;28;20466;-83
2022/10/30 07:19:33;;;;;;;18.88;12.40;;;12.00;99.90;;;;;;5043373;28;20494;-83
2022/10/30 07:22:02;;;;;;;19.77;11.38;;;12.30;99.90;;;;;;5063588;28;20046;-83
2022/10/30 07:24:29;;;;;;;19.67;11.37;;;12.30;99.90;;;;;;5042676;28;20049;-83
2022/10/30 07:27:30;;;;;;;12.98;9.55;;;12.30;99.90;;;;;;5043189;28;20272;-83
2022/10/30 07:30:12;;;;;;;17.15;10.02;;;12.40;99.90;;;;;;5052882;28;20045;-83
2022/10/30 07:32:57;;;;;;;15.10;8.90;;;12.50;99.90;;;;;;5041616;28;20048;-83
2022/10/30 07:35:58;;;;;;;13.52;8.27;;;12.90;99.90;;;;;;5051874;28;20047;-83
2022/10/30 07:38:54;;;;;;;13.70;8.43;;;13.10;99.90;;;;;;5040065;28;20060;-83
2022/10/30 07:41:49;;;;;;;18.05;8.00;;;13.20;99.90;;;;;;5062157;28;20044;-84
2022/10/30 07:44:33;;;;;;;13.45;7.50;;;13.40;99.90;;;;;;5045714;28;20048;-85
2022/10/30 07:47:25;;;;;;;14.32;7.68;;;13.40;99.90;;;;;;5034347;28;20030;-87
2022/10/30 07:50:08;;;;;;;13.27;7.20;;;13.40;99.90;;;;;;5053099;28;20060;-83
2022/10/30 07:52:35;;;;;;;16.92;7.20;;;13.60;99.90;;;;;;5044949;28;20493;-82
2022/10/30 07:55:02;;;;;;;11.30;7.30;;;13.70;99.90;;;;;;5029702;28;20037;-83
2022/10/30 07:57:58;;;;;;;13.43;7.13;;;13.70;99.90;;;;;;5007887;28;20046;-84
2022/10/30 08:01:02;;;;;;;13.38;6.70;;;13.80;99.90;;;;;;5021304;28;20064;-83
2022/10/30 08:03:31;;;;;;;11.43;7.18;;;13.80;99.90;;;;;;5039289;28;20041;-84
2022/10/30 08:06:24;;;;;;;14.85;7.25;;;13.90;99.90;;;;;;5043340;28;20045;-85
2022/10/30 08:08:51;;;;;;;15.45;9.13;;;14.10;99.90;;;;;;5048571;28;20029;-84
2022/10/30 08:11:27;;;;;;;12.43;6.82;;;14.30;99.90;;;;;;5042915;28;20048;-89
2022/10/30 08:13:54;;;;;;;9.80;6.47;;;14.40;99.90;;;;;;5051141;28;20390;-77
2022/10/30 08:16:22;;;;;;;11.82;6.32;;;14.60;99.90;;;;;;5034595;28;20474;-78
2022/10/30 08:18:49;;;;;;;10.45;6.82;;;14.80;99.90;;;;;;5032759;28;20025;-76
2022/10/30 08:21:19;;;;;;;11.97;7.13;;;15.10;99.90;;;;;;5049682;28;20049;-85
2022/10/30 08:24:07;;;;;;;10.88;7.10;;;15.50;99.90;;;;;;5038510;28;20397;-85
2022/10/30 08:26:34;;;;;;;11.73;8.23;;;16.10;99.90;;;;;;5042068;28;20049;-86
2022/10/30 08:29:00;;;;;;;13.80;7.22;;;16.40;99.90;;;;;;5036286;28;20045;-85
2022/10/30 08:31:29;;;;;;;13.98;6.35;;;16.70;99.90;;;;;;5046753;28;20044;-87
2022/10/30 08:34:04;;;;;;;19.92;7.53;;;16.90;99.90;;;;;;5041582;28;20471;-85
2022/10/30 08:36:37;;;;;;;11.93;6.63;;;17.30;99.90;;;;;;5049821;28;20043;-85
2022/10/30 08:39:04;;;;;;;12.63;7.47;;;17.80;99.90;;;;;;5033334;28;20048;-86
2022/10/30 08:41:49;;;;;;;13.18;7.13;;;18.50;99.90;;;;;;5040466;28;20048;-85
2022/10/30 08:44:15;;;;;;;12.77;5.95;;;19.00;99.90;;;;;;5042815;28;20041;-86
2022/10/30 08:47:00;;;;;;;10.82;6.40;;;19.30;99.90;;;;;;5036122;28;20036;-86
2022/10/30 08:49:26;;;;;;;13.65;6.10;;;19.30;99.90;;;;;;5048357;28;20415;-86
2022/10/30 08:51:56;;;;;;;17.42;6.50;;;19.10;99.90;;;;;;5037621;28;20038;-86
2022/10/30 08:54:22;;;;;;;10.32;6.00;;;18.80;99.90;;;;;;5035743;28;20041;-85
2022/10/30 08:56:49;;;;;;;10.38;5.13;;;18.70;99.90;;;;;;5055384;28;20053;-85
2022/10/30 08:59:15;;;;;;;8.48;4.97;;;18.30;99.90;;;;;;5031878;28;20042;-85
2022/10/30 09:01:42;;;;;;;9.63;5.70;;;18.30;99.90;;;;;;5055390;28;20056;-86
2022/10/30 09:04:31;;;;;;;12.48;5.10;;;18.20;99.90;;;;;;5043377;28;20028;-89
2022/10/30 09:07:15;;;;;;;13.30;5.30;;;18.30;99.90;;;;;;5054009;28;20052;-85
2022/10/30 09:10:03;;;;;;;10.15;5.88;;;18.30;99.90;;;;;;5047055;28;20048;-86
2022/10/30 09:12:32;;;;;;;13.45;6.32;;;18.30;99.90;;;;;;5047012;28;20042;-87
2022/10/30 09:14:59;;;;;;;11.35;5.63;;;18.30;99.90;;;;;;5048986;28;20042;-86
2022/10/30 09:17:26;;;;;;;12.63;5.47;;;18.10;99.90;;;;;;5040761;28;20463;-86
2022/10/30 09:19:52;;;;;;;10.70;5.40;;;18.10;99.90;;;;;;5027359;28;20411;-85
2022/10/30 09:22:28;;;;;;;12.60;5.72;;;18.00;99.90;;;;;;5034980;28;20044;-88
2022/10/30 09:24:55;;;;;;;6.47;4.38;;;18.10;99.90;;;;;;5039779;28;20040;-83
2022/10/30 09:27:39;;;;;;;11.60;6.22;;;18.20;99.90;;;;;;5039727;28;20034;-84
2022/10/30 09:30:08;;;;;;;12.98;4.95;;;18.40;99.90;;;;;;5035215;28;20057;-84
2022/10/30 09:32:39;;;;;;;10.30;5.45;;;18.40;99.90;;;;;;5033633;28;20049;-82
2022/10/30 09:35:11;;;;;;;11.43;4.63;;;18.60;99.90;;;;;;5035779;28;20475;-82
2022/10/30 09:37:39;;;;;;;15.05;4.82;;;18.60;99.90;;;;;;5029200;28;20032;-84
2022/10/30 09:40:36;;;;;;;11.48;4.63;;;18.60;99.90;;;;;;5042103;28;20053;-84
2022/10/30 09:43:27;;;;;;;14.93;5.78;;;18.80;99.90;;;;;;5030526;28;20045;-84
2022/10/30 09:46:21;;;;;;;11.80;5.68;;;18.90;99.90;;;;;;5041317;28;20077;-83
2022/10/30 09:48:53;;;;;;;9.63;4.53;;;18.90;99.90;;;;;;5031156;28;20229;-83
2022/10/30 09:51:25;;;;;;;10.38;4.95;;;18.90;99.90;;;;;;5029794;28;20052;-84
2022/10/30 09:54:19;;;;;;;15.85;5.40;;;19.00;99.90;;;;;;5030441;28;20489;-85
2022/10/30 09:57:01;;;;;;;14.00;5.15;;;19.00;99.90;;;;;;5028601;28;20042;-84
2022/10/30 09:59:49;;;;;;;10.30;4.38;;;19.20;99.90;;;;;;5033474;28;20029;-85
2022/10/30 10:02:30;;;;;;;6.82;4.00;;;19.30;99.50;;;;;;5036598;28;20096;-83
2022/10/30 10:05:05;;;;;;;11.27;5.82;;;19.40;96.00;;;;;;5039436;28;20044;-84
2022/10/30 10:07:48;;;;;;;;;;;19.40;97.90;;;;;;5049753;28;20119;-85
2022/10/30 10:10:56;;;;;;;8.07;4.07;;;19.40;95.80;;;;;;5047301;28;19909;-84
2022/10/30 10:13:37;;;;;;;10.52;5.00;;;19.30;98.30;;;;;;5041536;28;20037;-85
2022/10/30 10:16:09;;;;;;;8.05;5.00;;;19.40;97.40;;;;;;5036381;28;20037;-84
2022/10/30 10:18:44;;;;;;;14.85;5.20;;;19.70;96.10;;;;;;5041475;28;20053;-84
2022/10/30 10:21:43;;;;;;;10.55;4.72;;;19.80;95.10;;;;;;5040561;28;20056;-86
2022/10/30 10:24:18;;;;;;;10.38;4.18;;;19.90;93.70;;;;;;5018574;28;20056;-84
2022/10/30 10:27:09;;;;;;;11.60;4.40;;;19.90;93.50;;;;;;5050846;28;20037;-85
2022/10/30 10:30:09;;;;;;;9.70;4.15;;;19.80;92.90;;;;;;5037838;28;20052;-84
2022/10/30 10:32:50;;;;;;;9.80;3.67;;;20.00;92.30;;;;;;5039674;28;20049;-81
2022/10/30 10:35:50;;;;;;;12.18;3.45;;;19.90;90.90;;;;;;5043168;28;20497;-84
2022/10/30 10:38:25;;;;;;;8.63;4.05;;;20.00;91.10;;;;;;5049919;28;20402;-80
2022/10/30 10:41:06;;;;;;;8.38;4.45;;;20.00;90.00;;;;;;5040923;28;20048;-92
2022/10/30 10:43:57;;;;;;;11.55;3.70;;;20.10;89.30;;;;;;5033633;28;20048;-91
2022/10/30 10:46:41;;;;;;;8.43;4.68;;;20.20;88.60;;;;;;5025713;28;20033;-91
2022/10/30 10:49:17;;;;;;;13.05;4.32;;;20.40;86.20;;;;;;5039984;28;20033;-91
2022/10/30 10:51:50;;;;;;;9.30;4.72;;;20.40;83.50;;;;;;5048004;28;20080;-90
2022/10/30 10:54:26;;;;;;;8.45;3.22;;;20.60;86.30;;;;;;5036332;28;20037;-91
2022/10/30 10:56:55;;;;;;;7.53;3.67;;;20.70;82.50;;;;;;5035311;28;20033;-91
2022/10/30 10:59:37;;;;;;;9.48;3.60;;;20.70;80.40;;;;;;5034485;28;20037;-91
2022/10/30 11:02:41;;;;;;;10.65;4.35;;;20.80;77.20;;;;;;5033739;28;20052;-91
2022/10/30 11:05:17;;;;;;;10.48;4.07;;;20.80;76.90;;;;;;5044681;28;20056;-89
2022/10/30 11:07:50;;;;;;;8.95;4.28;;;20.70;77.90;;;;;;5069578;28;20025;-89
2022/10/30 11:10:18;;;;;;;12.27;3.92;;;20.60;74.10;;;;;;5035861;28;20508;-82
2022/10/30 11:12:44;;;;;;;6.63;2.90;;;20.60;74.00;;;;;;5053398;28;20040;-81
2022/10/30 11:15:30;;;;;;;8.95;4.00;;;20.50;76.70;;;;;;5053249;28;20041;-81
2022/10/30 11:18:06;;;;;;;12.20;4.30;;;20.60;77.70;;;;;;5051266;28;20029;-82
2022/10/30 11:20:35;;;;;;;11.35;3.67;;;20.70;75.90;;;;;;5053503;28;20493;-83
2022/10/30 11:23:02;;;;;;;12.45;3.67;;;20.70;73.90;;;;;;5053288;28;20474;-83
2022/10/30 11:25:37;;;;;;;8.00;3.42;;;20.60;76.60;;;;;;5053453;28;20036;-81
2022/10/30 11:28:05;;;;;;;7.45;3.75;;;20.60;78.50;;;;;;5037272;28;20383;-81
2022/10/30 11:30:31;;;;;;;9.35;3.97;;;20.70;79.40;;;;;;5027280;28;20033;-81
2022/10/30 11:32:58;;;;;;;7.35;3.65;;;20.80;77.80;;;;;;5050997;28;20036;-82
2022/10/30 11:35:25;;;;;;;14.55;3.22;;;20.80;76.30;;;;;;5058461;28;20053;-83
2022/10/30 11:38:13;;;;;;;8.65;3.72;;;20.90;79.40;;;;;;5047553;28;20036;-83
2022/10/30 11:40:51;;;;;;;10.20;3.75;;;21.10;74.60;;;;;;5044868;28;20033;-82
2022/10/30 11:43:22;;;;;;;7.35;3.22;;;21.20;69.80;;;;;;5046847;28;20033;-83
2022/10/30 11:45:49;;;;;;;7.20;3.20;;;21.30;67.80;;;;;;5039604;28;20032;-82
2022/10/30 11:48:28;;;;;;;5.22;3.22;;;21.50;66.70;;;;;;5048489;28;20060;-82
2022/10/30 11:50:59;;;;;;;12.98;3.40;;;21.60;62.60;;;;;;5052127;28;20302;-81
2022/10/30 11:53:33;;;;;;;8.18;4.22;;;21.80;60.50;;;;;;5057855;28;20033;-82
2022/10/30 11:56:02;;;;;;;12.52;3.47;;;22.10;57.60;;;;;;5043808;28;20038;-86
2022/10/30 11:58:35;;;;;;;8.23;2.92;;;22.20;54.70;;;;;;5036988;28;20037;-86
2022/10/30 12:01:16;;;;;;;8.10;3.30;;;22.10;54.90;;;;;;5039135;28;20056;-84
2022/10/30 12:03:42;;;;;;;9.43;3.50;;;22.00;53.00;;;;;;5057092;28;20056;-84
2022/10/30 12:06:19;;;;;;;6.82;2.38;;;22.10;52.20;;;;;;5039639;28;20386;-86
2022/10/30 12:09:09;;;;;;;7.03;2.70;;;22.30;51.40;;;;;;5053710;28;20056;-85
2022/10/30 12:11:37;;;;;;;8.25;2.95;;;22.40;51.20;;;;;;5044742;28;20356;-87
2022/10/30 12:14:04;;;;;;;6.40;2.25;;;22.50;45.70;;;;;;5030666;28;20041;-78
2022/10/30 12:16:32;;;;;;;7.72;3.00;;;22.50;46.30;;;;;;5068312;28;20017;-87
2022/10/30 12:19:05;;;;;;;10.45;3.20;;;22.50;46.90;;;;;;5061993;28;20025;-89
2022/10/30 12:21:38;;;;;;;7.65;3.60;;;22.40;46.20;;;;;;5044236;28;20029;-88
2022/10/30 12:24:11;;;;;;;9.02;3.28;;;22.50;45.20;;;;;;5043831;28;20041;-89
2022/10/30 12:26:39;;;;;;;9.10;3.22;;;22.50;44.40;;;;;;5038394;28;20052;-88
2022/10/30 12:29:12;;;;;;;7.20;2.50;;;22.70;42.30;;;;;;5041006;28;20049;-86
2022/10/30 12:31:47;;;;;;;8.52;3.25;;;22.70;41.90;;;;;;5048278;28;20052;-85
2022/10/30 12:34:26;;;;;;;9.50;2.72;;;22.70;39.00;;;;;;5047146;28;20043;-87
2022/10/30 12:37:03;;;;;;;10.73;2.90;;;22.60;38.80;;;;;;5037937;28;20391;-86
2022/10/30 12:39:43;;;;;;;9.07;3.10;;;22.80;37.80;;;;;;5052356;28;20385;-90
2022/10/30 12:42:15;;;;;;;8.43;3.95;;;22.60;38.20;;;;;;5040914;28;20032;-89
2022/10/30 12:45:01;;;;;;;9.68;4.05;;;22.70;39.80;;;;;;5043159;28;20501;-89
2022/10/30 12:47:32;;;;;;;9.43;3.03;;;22.70;37.80;;;;;;5047783;28;20034;-90
2022/10/30 12:50:14;;;;;;;5.68;3.15;;;22.70;37.30;;;;;;5066499;28;20029;-88
2022/10/30 12:52:50;;;;;;;7.28;2.78;;;22.60;36.20;;;;;;5034590;28;20044;-89
2022/10/30 12:55:39;;;;;;;7.75;2.30;;;22.60;36.10;;;;;;5030504;28;20082;-88
2022/10/30 12:58:38;;;;;;;9.73;2.83;;;22.40;34.80;;;;;;5043121;28;20037;-88
2022/10/30 13:01:10;;;;;;;5.57;3.00;;;22.20;34.20;;;;;;5061073;28;20045;-89
2022/10/30 13:03:54;;;;;;;10.68;2.58;;;22.00;33.20;;;;;;5046149;28;20037;-88
2022/10/30 13:06:27;;;;;;;9.75;2.38;;;21.90;32.40;;;;;;5035787;28;20037;-88
2022/10/30 13:09:15;;;;;;;7.93;2.60;;;21.90;33.10;;;;;;5042598;28;20128;-90